createdAt,value
2023-05-13T00:02:04.451Z,102119.94
2023-05-13T00:04:37.156Z,102125.94
2023-05-13T00:07:09.907Z,102122.72
2023-05-13T00:09:42.614Z,102117.94
2023-05-13T00:12:15.483Z,102124.69
2023-05-13T00:14:48.179Z,102123.47
2023-05-13T00:17:22.341Z,102125.06
2023-05-13T00:19:55.004Z,102127.78
2023-05-13T00:22:27.784Z,102122.59
2023-05-13T00:25:00.895Z,102122.59
2023-05-13T00:27:33.693Z,102128.53
2023-05-13T00:30:08.254Z,102121.84
2023-05-13T00:32:42.528Z,102115.50
2023-05-13T00:35:15.306Z,102115.44
2023-05-13T00:37:48.033Z,102113.88
2023-05-13T00:40:22.855Z,102115.84
2023-05-13T00:42:56.238Z,102111.47
2023-05-13T00:45:29.093Z,102111.09
2023-05-13T00:48:03.276Z,102109.84
2023-05-13T00:50:36.382Z,102115.31
2023-05-13T00:53:08.965Z,102121.28
2023-05-13T00:55:43.029Z,102116.19
2023-05-13T00:58:17.983Z,102112.09
2023-05-13T01:01:02.477Z,102116.91
2023-05-13T01:03:50.212Z,102124.75
2023-05-13T01:06:32.712Z,102124.69
2023-05-13T01:09:16.601Z,102123.19
2023-05-13T01:11:53.865Z,102122.72
2023-05-13T01:14:34.008Z,102125.50
2023-05-13T01:17:12.259Z,102113.19
2023-05-13T01:19:50.608Z,102115.97
2023-05-13T01:22:24.612Z,102115.59
2023-05-13T01:24:57.365Z,102111.16
2023-05-13T01:27:30.560Z,102116.38
2023-05-13T01:30:04.046Z,102106.09
2023-05-13T01:32:39.536Z,102110.06
2023-05-13T01:35:13.309Z,102113.59
2023-05-13T01:37:52.549Z,102117.56
2023-05-13T01:43:05.276Z,102121.44
2023-05-13T01:45:38.126Z,102125.31
2023-05-13T01:48:10.642Z,102117.47
2023-05-13T01:50:48.541Z,102119.78
2023-05-13T01:53:22.427Z,102127.31
2023-05-13T01:55:58.304Z,102123.69
2023-05-13T01:58:31.750Z,102118.16
2023-05-13T02:01:04.610Z,102119.31
2023-05-13T02:03:38.353Z,102123.97
2023-05-13T02:06:11.250Z,102117.16
2023-05-13T02:08:47.789Z,102119.31
2023-05-13T02:11:20.498Z,102121.19
2023-05-13T02:13:53.147Z,102125.13
2023-05-13T02:16:25.807Z,102118.66
2023-05-13T02:18:58.746Z,102115.47
2023-05-13T02:21:34.287Z,102118.16
2023-05-13T02:24:08.704Z,102127.66
2023-05-13T02:26:41.917Z,102125.28
2023-05-13T02:29:14.995Z,102132.03
2023-05-13T02:31:47.991Z,102127.53
2023-05-13T02:34:20.620Z,102130.22
2023-05-13T02:36:53.440Z,102138.84
2023-05-13T02:39:27.956Z,102134.06
2023-05-13T02:42:03.196Z,102139.63
2023-05-13T02:44:38.248Z,102138.00
2023-05-13T02:47:11.277Z,102140.72
2023-05-13T02:49:44.099Z,102132.00
2023-05-13T02:52:17.006Z,102130.75
2023-05-13T02:54:51.178Z,102136.66
2023-05-13T02:57:23.890Z,102134.78
2023-05-13T02:59:56.607Z,102131.00
2023-05-13T03:02:29.481Z,102126.59
2023-05-13T03:05:02.056Z,102132.13
2023-05-13T03:07:35.303Z,102132.19
2023-05-13T03:10:10.471Z,102126.50
2023-05-13T03:12:43.784Z,102124.91
2023-05-13T03:15:17.748Z,102126.13
2023-05-13T03:17:50.778Z,102127.16
2023-05-13T03:20:25.023Z,102122.34
2023-05-13T03:22:57.841Z,102121.63
2023-05-13T03:25:31.885Z,102130.22
2023-05-13T03:28:05.204Z,102128.13
2023-05-13T03:30:43.543Z,102126.94
2023-05-13T03:33:20.932Z,102130.16
2023-05-13T03:35:53.706Z,102135.97
2023-05-13T03:38:31.604Z,102126.09
2023-05-13T03:41:05.907Z,102133.94
2023-05-13T03:43:39.260Z,102139.44
2023-05-13T03:46:15.670Z,102138.25
2023-05-13T03:48:48.623Z,102137.72
2023-05-13T03:51:21.349Z,102141.59
2023-05-13T03:53:54.648Z,102145.59
2023-05-13T03:56:28.805Z,102147.22
2023-05-13T03:59:01.727Z,102146.63
2023-05-13T04:01:34.310Z,102150.41
2023-05-13T04:04:07.070Z,102149.19
2023-05-13T04:06:39.838Z,102151.47
2023-05-13T04:09:12.674Z,102150.75
2023-05-13T04:11:46.757Z,102153.44
2023-05-13T04:14:20.971Z,102155.81
2023-05-13T04:16:53.734Z,102152.72
2023-05-13T04:19:26.887Z,102154.31
2023-05-13T04:21:59.610Z,102158.91
2023-05-13T04:24:33.462Z,102154.09
2023-05-13T04:27:07.693Z,102156.44
2023-05-13T04:29:40.425Z,102158.03
2023-05-13T04:32:15.971Z,102165.91
2023-05-13T04:34:49.584Z,102162.72
2023-05-13T04:37:22.333Z,102163.53
2023-05-13T04:39:56.986Z,102160.19
2023-05-13T04:42:31.749Z,102162.16
2023-05-13T04:45:05.792Z,102160.00
2023-05-13T04:47:38.550Z,102163.97
2023-05-13T04:50:12.100Z,102158.13
2023-05-13T04:52:47.191Z,102163.94
2023-05-13T04:55:21.130Z,102160.44
2023-05-13T04:57:56.274Z,102154.06
2023-05-13T05:00:29.527Z,102166.13
2023-05-13T05:03:02.194Z,102163.06
2023-05-13T05:05:34.992Z,102168.97
2023-05-13T05:08:08.445Z,102163.44
2023-05-13T05:10:42.688Z,102169.84
2023-05-13T05:13:18.439Z,102179.56
2023-05-13T05:15:51.210Z,102180.50
2023-05-13T05:18:24.083Z,102181.22
2023-05-13T05:20:57.359Z,102181.22
2023-05-13T05:23:30.113Z,102183.50
2023-05-13T05:26:11.078Z,102181.16
2023-05-13T05:28:47.296Z,102176.44
2023-05-13T05:31:21.926Z,102182.84
2023-05-13T05:33:55.112Z,102178.47
2023-05-13T05:36:28.016Z,102178.03
2023-05-13T05:39:00.916Z,102184.34
2023-05-13T05:41:38.609Z,102188.28
2023-05-13T05:44:14.331Z,102182.38
2023-05-13T05:46:47.739Z,102182.09
2023-05-13T05:49:20.851Z,102182.28
2023-05-13T05:51:54.908Z,102187.63
2023-05-13T05:54:28.293Z,102189.50
2023-05-13T05:57:01.218Z,102185.22
2023-05-13T05:59:35.419Z,102182.91
2023-05-13T06:02:08.508Z,102188.19
2023-05-13T06:04:42.039Z,102187.63
2023-05-13T06:07:15.058Z,102186.44
2023-05-13T06:09:47.994Z,102185.41
2023-05-13T06:12:20.977Z,102193.56
2023-05-13T06:14:54.848Z,102192.06
2023-05-13T06:17:27.645Z,102191.69
2023-05-13T06:20:00.306Z,102179.16
2023-05-13T06:22:33.028Z,102192.09
2023-05-13T06:25:06.761Z,102192.97
2023-05-13T06:27:39.570Z,102192.22
2023-05-13T06:30:14.249Z,102193.41
2023-05-13T06:33:00.027Z,102195.78
2023-05-13T06:35:34.100Z,102196.72
2023-05-13T06:38:10.207Z,102194.50
2023-05-13T06:40:43.284Z,102195.38
2023-05-13T06:43:16.625Z,102188.75
2023-05-13T06:45:54.811Z,102198.06
2023-05-13T06:48:30.364Z,102195.88
2023-05-13T06:51:06.297Z,102197.56
2023-05-13T06:53:38.975Z,102197.28
2023-05-13T06:56:11.748Z,102202.56
2023-05-13T06:58:44.472Z,102203.53
2023-05-13T07:01:18.626Z,102203.66
2023-05-13T07:03:51.592Z,102212.56
2023-05-13T07:06:24.444Z,102213.44
2023-05-13T07:08:57.434Z,102208.47
2023-05-13T07:11:30.279Z,102219.97
2023-05-13T07:14:03.296Z,102218.19
2023-05-13T07:16:37.538Z,102215.53
2023-05-13T07:19:10.634Z,102213.63
2023-05-13T07:21:43.541Z,102203.47
2023-05-13T07:24:17.032Z,102205.56
2023-05-13T07:26:50.605Z,102204.00
2023-05-13T07:29:24.134Z,102206.09
2023-05-13T07:31:59.613Z,102205.78
2023-05-13T07:34:32.381Z,102200.22
2023-05-13T07:37:05.777Z,102205.50
2023-05-13T07:39:38.638Z,102210.34
2023-05-13T07:42:11.364Z,102206.84
2023-05-13T07:44:44.188Z,102206.03
2023-05-13T07:47:18.773Z,102215.75
2023-05-13T07:49:51.577Z,102203.56
2023-05-13T07:52:24.608Z,102203.53
2023-05-13T07:54:57.461Z,102209.97
2023-05-13T07:57:30.399Z,102201.75
2023-05-13T08:00:03.407Z,102193.88
2023-05-13T08:02:46.948Z,102201.06
2023-05-13T08:05:20.067Z,102203.03
2023-05-13T08:07:52.959Z,102204.72
2023-05-13T08:10:25.666Z,102201.19
2023-05-13T08:12:58.592Z,102205.19
2023-05-13T08:15:31.588Z,102206.03
2023-05-13T08:18:05.841Z,102200.53
2023-05-13T08:20:39.145Z,102209.66
2023-05-13T08:23:11.766Z,102206.88
2023-05-13T08:25:44.584Z,102210.81
2023-05-13T08:28:17.260Z,102214.44
2023-05-13T08:30:50.243Z,102213.66
2023-05-13T08:33:24.272Z,102211.72
2023-05-13T08:35:57.481Z,102218.88
2023-05-13T08:38:30.232Z,102223.63
2023-05-13T08:41:05.397Z,102227.63
2023-05-13T08:43:39.641Z,102222.78
2023-05-13T08:46:13.378Z,102219.69
2023-05-13T08:48:49.003Z,102223.97
2023-05-13T08:51:22.160Z,102227.56
2023-05-13T08:53:56.338Z,102218.81
2023-05-13T08:56:29.862Z,102226.38
2023-05-13T08:59:02.773Z,102225.59
2023-05-13T09:01:35.770Z,102224.72
2023-05-13T09:04:11.574Z,102229.47
2023-05-13T09:06:44.940Z,102219.16
2023-05-13T09:09:18.039Z,102233.88
2023-05-13T09:11:53.546Z,102222.72
2023-05-13T09:14:35.363Z,102223.84
2023-05-13T09:17:08.894Z,102217.69
2023-05-13T09:19:43.292Z,102222.19
2023-05-13T09:22:18.721Z,102220.09
2023-05-13T09:24:55.663Z,102230.44
2023-05-13T09:27:38.221Z,102227.06
2023-05-13T09:30:12.153Z,102229.34
2023-05-13T09:32:45.291Z,102229.22
2023-05-13T09:35:19.603Z,102224.78
2023-05-13T09:37:52.775Z,102225.47
2023-05-13T09:40:25.910Z,102229.88
2023-05-13T09:43:00.203Z,102226.69
2023-05-13T09:45:33.805Z,102232.53
2023-05-13T09:48:07.355Z,102234.66
2023-05-13T09:50:49.934Z,102224.28
2023-05-13T09:53:22.934Z,102223.63
2023-05-13T09:55:57.515Z,102225.44
2023-05-13T09:58:31.158Z,102227.56
2023-05-13T10:01:04.982Z,102228.34
2023-05-13T10:03:38.528Z,102224.28
2023-05-13T10:06:12.926Z,102228.88
2023-05-13T10:08:50.858Z,102235.19
2023-05-13T10:11:25.801Z,102228.81
2023-05-13T10:14:03.016Z,102231.84
2023-05-13T10:16:36.249Z,102230.59
2023-05-13T10:19:09.712Z,102224.56
2023-05-13T10:21:44.701Z,102212.53
2023-05-13T10:24:18.030Z,102213.31
2023-05-13T10:26:54.439Z,102224.34
2023-05-13T10:29:29.186Z,102214.75
2023-05-13T10:32:03.198Z,102220.97
2023-05-13T10:34:39.049Z,102227.31
2023-05-13T10:37:35.842Z,102220.03
2023-05-13T10:40:31.814Z,102214.41
2023-05-13T10:43:14.709Z,102210.50
2023-05-13T10:45:49.387Z,102216.28
2023-05-13T10:48:24.153Z,102215.78
2023-05-13T10:51:02.245Z,102219.31
2023-05-13T10:53:48.937Z,102212.50
2023-05-13T10:56:23.184Z,102210.69
2023-05-13T10:59:00.471Z,102218.47
2023-05-13T11:01:36.567Z,102206.75
2023-05-13T11:04:14.457Z,102204.69
2023-05-13T11:06:49.686Z,102204.41
2023-05-13T11:09:32.469Z,102207.34
2023-05-13T11:12:06.384Z,102200.50
2023-05-13T11:14:44.443Z,102209.56
2023-05-13T11:17:20.623Z,102198.16
2023-05-13T11:19:53.572Z,102203.53
2023-05-13T11:22:34.390Z,102193.53
2023-05-13T11:25:10.554Z,102199.38
2023-05-13T11:27:44.458Z,102192.59
2023-05-13T11:30:23.997Z,102191.50
2023-05-13T11:32:58.580Z,102191.66
2023-05-13T11:35:33.587Z,102190.94
2023-05-13T11:38:08.892Z,102188.06
2023-05-13T11:40:44.048Z,102189.31
2023-05-13T11:43:20.806Z,102197.47
2023-05-13T11:45:55.685Z,102189.03
2023-05-13T11:48:30.188Z,102187.75
2023-05-13T11:51:03.147Z,102189.75
2023-05-13T11:53:36.102Z,102177.53
2023-05-13T11:56:13.636Z,102179.97
2023-05-13T11:58:46.756Z,102182.06
2023-05-13T12:01:19.677Z,102175.38
2023-05-13T12:04:01.833Z,102186.81
2023-05-13T12:06:35.161Z,102180.53
2023-05-13T12:09:09.695Z,102178.19
2023-05-13T12:11:44.575Z,102172.06
2023-05-13T12:14:18.398Z,102174.41
2023-05-13T12:16:52.396Z,102180.81
2023-05-13T12:19:25.350Z,102173.19
2023-05-13T12:22:00.503Z,102168.44
2023-05-13T12:24:34.975Z,102171.66
2023-05-13T12:27:11.574Z,102173.66
2023-05-13T12:29:44.963Z,102173.13
2023-05-13T12:32:17.959Z,102185.38
2023-05-13T12:34:51.889Z,102178.34
2023-05-13T12:37:26.071Z,102178.72
2023-05-13T12:40:11.690Z,102184.44
2023-05-13T12:42:48.060Z,102190.75
2023-05-13T12:45:21.532Z,102187.59
2023-05-13T12:47:56.038Z,102185.09
2023-05-13T12:50:29.079Z,102184.56
2023-05-13T12:53:01.948Z,102176.47
2023-05-13T12:55:40.043Z,102175.66
2023-05-13T12:58:19.946Z,102176.47
2023-05-13T13:00:56.762Z,102179.38
2023-05-13T13:03:44.038Z,102176.47
2023-05-13T13:06:22.802Z,102179.16
2023-05-13T13:09:09.974Z,102176.91
2023-05-13T13:11:55.775Z,102179.78
2023-05-13T13:14:30.043Z,102180.06
2023-05-13T13:17:05.879Z,102168.50
2023-05-13T13:19:38.941Z,102180.22
2023-05-13T13:22:14.788Z,102173.66
2023-05-13T13:24:47.540Z,102167.72
2023-05-13T13:27:20.511Z,102166.78
2023-05-13T13:29:57.623Z,102169.25
2023-05-13T13:32:30.532Z,102157.66
2023-05-13T13:35:05.664Z,102161.59
2023-05-13T13:37:40.152Z,102161.28
2023-05-13T13:40:16.022Z,102157.53
2023-05-13T13:42:49.050Z,102157.34
2023-05-13T13:45:24.997Z,102160.81
2023-05-13T13:47:59.760Z,102155.09
2023-05-13T13:50:42.517Z,102149.09
2023-05-13T13:53:23.674Z,102154.50
2023-05-13T13:55:56.801Z,102150.09
2023-05-13T13:58:32.412Z,102142.22
2023-05-13T14:01:09.708Z,102151.13
2023-05-13T14:03:44.120Z,102147.59
2023-05-13T14:06:21.049Z,102143.81
2023-05-13T14:08:59.837Z,102144.94
2023-05-13T14:11:35.447Z,102141.97
2023-05-13T14:14:09.302Z,102144.19
2023-05-13T14:16:46.721Z,102139.84
2023-05-13T14:19:22.370Z,102144.81
2023-05-13T14:21:55.357Z,102152.38
2023-05-13T14:24:35.397Z,102139.72
2023-05-13T14:27:10.781Z,102133.16
2023-05-13T14:29:44.104Z,102142.13
2023-05-13T14:32:21.834Z,102144.91
2023-05-13T14:34:54.961Z,102130.13
2023-05-13T14:37:27.802Z,102131.84
2023-05-13T14:40:00.798Z,102144.03
2023-05-13T14:42:33.786Z,102132.66
2023-05-13T14:45:07.684Z,102129.38
2023-05-13T14:47:44.531Z,102129.59
2023-05-13T14:50:17.500Z,102129.59
2023-05-13T14:52:53.263Z,102138.16
2023-05-13T14:55:26.469Z,102131.28
2023-05-13T14:57:59.418Z,102126.91
2023-05-13T15:00:32.960Z,102131.84
2023-05-13T15:03:07.385Z,102126.66
2023-05-13T15:05:43.232Z,102125.72
2023-05-13T15:08:17.348Z,102123.75
2023-05-13T15:10:51.741Z,102120.47
2023-05-13T15:13:27.222Z,102120.94
2023-05-13T15:16:00.304Z,102118.34
2023-05-13T15:18:34.817Z,102120.16
2023-05-13T15:21:08.031Z,102110.56
2023-05-13T15:23:40.865Z,102113.59
2023-05-13T15:26:14.212Z,102104.94
2023-05-13T15:28:50.071Z,102108.91
2023-05-13T15:31:23.378Z,102111.81
2023-05-13T15:33:57.734Z,102113.94
2023-05-13T15:36:31.109Z,102107.31
2023-05-13T15:39:04.604Z,102102.34
2023-05-13T15:41:37.824Z,102104.69
2023-05-13T15:44:10.787Z,102103.03
2023-05-13T15:46:43.943Z,102099.84
2023-05-13T15:49:21.960Z,102110.47
2023-05-13T15:52:04.852Z,102105.06
2023-05-13T15:54:50.111Z,102107.56
2023-05-13T15:57:23.468Z,102100.59
2023-05-13T15:59:56.348Z,102105.56
2023-05-13T16:02:36.162Z,102109.84
2023-05-13T16:05:21.183Z,102102.28
2023-05-13T16:07:59.783Z,102098.25
2023-05-13T16:10:33.987Z,102095.00
2023-05-13T16:13:11.798Z,102098.25
2023-05-13T16:15:55.699Z,102096.78
2023-05-13T16:18:33.916Z,102090.50
2023-05-13T16:21:09.450Z,102103.53
2023-05-13T16:23:45.628Z,102096.31
2023-05-13T16:26:19.442Z,102101.25
2023-05-13T16:28:59.899Z,102088.88
2023-05-13T16:31:36.310Z,102093.16
2023-05-13T16:34:10.579Z,102094.28
2023-05-13T16:36:44.959Z,102095.38
2023-05-13T16:39:21.007Z,102079.00
2023-05-13T16:41:53.943Z,102085.63
2023-05-13T16:44:26.814Z,102086.69
2023-05-13T16:46:59.660Z,102086.56
2023-05-13T16:49:32.793Z,102087.78
2023-05-13T16:52:08.533Z,102088.09
2023-05-13T16:54:42.117Z,102081.31
2023-05-13T16:57:18.899Z,102079.06
2023-05-13T16:59:55.019Z,102087.25
2023-05-13T17:02:32.796Z,102082.78
2023-05-13T17:05:09.231Z,102091.91
2023-05-13T17:07:48.378Z,102085.06
2023-05-13T17:10:24.238Z,102085.34
2023-05-13T17:13:00.372Z,102079.25
2023-05-13T17:15:33.463Z,102077.81
2023-05-13T17:18:07.013Z,102071.06
2023-05-13T17:20:41.377Z,102070.47
2023-05-13T17:23:18.448Z,102069.94
2023-05-13T17:25:53.351Z,102065.19
2023-05-13T17:28:28.929Z,102065.75
2023-05-13T17:31:02.576Z,102068.00
2023-05-13T17:33:37.827Z,102061.94
2023-05-13T17:36:11.136Z,102060.66
2023-05-13T17:38:46.026Z,102067.72
2023-05-13T17:41:26.723Z,102063.47
2023-05-13T17:43:59.820Z,102054.84
2023-05-13T17:46:34.067Z,102051.84
2023-05-13T17:49:14.786Z,102062.38
2023-05-13T17:51:48.543Z,102056.47
2023-05-13T17:54:25.995Z,102061.84
2023-05-13T17:56:59.438Z,102048.00
2023-05-13T17:59:37.372Z,102055.78
2023-05-13T18:02:13.230Z,102047.91
2023-05-13T18:04:50.650Z,102044.88
2023-05-13T18:07:23.442Z,102047.31
2023-05-13T18:09:57.371Z,102045.03
2023-05-13T18:12:30.478Z,102051.13
2023-05-13T18:15:03.630Z,102045.63
2023-05-13T18:17:39.303Z,102050.16
2023-05-13T18:20:15.986Z,102049.47
2023-05-13T18:22:49.090Z,102058.78
2023-05-13T18:25:28.242Z,102064.00
2023-05-13T18:28:17.931Z,102065.31
2023-05-13T18:31:18.166Z,102063.38
2023-05-13T18:33:59.549Z,102065.09
2023-05-13T18:36:40.641Z,102061.16
2023-05-13T18:39:25.017Z,102068.81
2023-05-13T18:42:53.447Z,102061.38
2023-05-13T18:45:36.983Z,102071.03
2023-05-13T18:48:36.400Z,102068.78
2023-05-13T18:51:12.593Z,102070.78
2023-05-13T18:53:54.211Z,102070.41
2023-05-13T18:56:53.645Z,102072.84
2023-05-13T19:02:47.481Z,102070.94
2023-05-13T19:05:52.227Z,102076.19
2023-05-13T19:08:50.109Z,102070.66
2023-05-13T19:11:23.149Z,102073.91
2023-05-13T19:13:56.649Z,102058.84
2023-05-13T19:16:54.377Z,102063.69
2023-05-13T19:24:14.056Z,102068.09
2023-05-13T19:34:47.186Z,102090.78
2023-05-13T19:45:23.226Z,102093.28
2023-05-13T20:06:59.290Z,102107.63
2023-05-13T20:09:32.366Z,102105.25
2023-05-13T20:12:10.492Z,102106.03
2023-05-13T20:15:26.920Z,102113.97
2023-05-13T20:18:36.014Z,102109.22
2023-05-13T20:21:16.168Z,102106.81
2023-05-13T20:24:02.515Z,102104.44
2023-05-13T20:27:11.994Z,102110.34
2023-05-13T20:29:52.252Z,102112.34
2023-05-13T20:33:03.008Z,102109.97
2023-05-13T20:35:36.891Z,102106.75
2023-05-13T20:38:09.683Z,102113.13
2023-05-13T20:40:43.858Z,102111.53
2023-05-13T20:43:20.425Z,102104.34
2023-05-13T20:45:53.748Z,102110.72
2023-05-13T20:48:26.683Z,102113.81
2023-05-13T20:51:00.412Z,102107.47
2023-05-13T20:53:33.795Z,102109.81
2023-05-13T20:56:09.956Z,102109.78
2023-05-13T20:58:43.144Z,102111.38
2023-05-13T21:01:17.949Z,102107.41
2023-05-13T21:03:50.787Z,102108.16
2023-05-13T21:06:23.946Z,102118.13
2023-05-13T21:08:56.894Z,102112.06
2023-05-13T21:11:31.300Z,102123.97
2023-05-13T21:14:04.372Z,102110.50
2023-05-13T21:16:37.391Z,102116.03
2023-05-13T21:19:18.669Z,102116.00
2023-05-13T21:21:52.277Z,102118.38
2023-05-13T21:24:25.314Z,102116.75
2023-05-13T21:26:59.225Z,102114.38
2023-05-13T21:29:32.092Z,102119.88
2023-05-13T21:32:05.455Z,102111.94
2023-05-13T21:34:38.529Z,102115.84
2023-05-13T21:37:11.212Z,102107.16
2023-05-13T21:39:44.038Z,102116.31
2023-05-13T21:42:18.114Z,102119.03
2023-05-13T21:44:51.205Z,102118.25
2023-05-13T21:47:24.528Z,102115.84
2023-05-13T21:49:57.612Z,102105.56
2023-05-13T21:52:30.594Z,102109.47
2023-05-13T21:55:03.652Z,102107.09
2023-05-13T21:57:37.863Z,102111.78
2023-05-13T22:00:15.193Z,102107.03
2023-05-13T22:02:51.816Z,102107.38
2023-05-13T22:05:24.804Z,102102.28
2023-05-13T22:07:57.568Z,102105.34
2023-05-13T22:10:30.995Z,102106.06
2023-05-13T22:13:05.398Z,102101.31
2023-05-13T22:15:38.355Z,102103.31
2023-05-13T22:18:11.194Z,102104.78
2023-05-13T22:20:44.085Z,102106.78
2023-05-13T22:23:16.856Z,102109.13
2023-05-13T22:25:49.706Z,102110.56
2023-05-13T22:28:23.933Z,102106.63
2023-05-13T22:30:57.047Z,102108.94
2023-05-13T22:33:29.982Z,102103.44
2023-05-13T22:36:02.614Z,102104.97
2023-05-13T22:38:35.434Z,102099.81
2023-05-13T22:41:09.340Z,102098.53
2023-05-13T22:43:43.669Z,102101.66
2023-05-13T22:46:16.566Z,102094.53
2023-05-13T22:48:49.256Z,102087.44
2023-05-13T22:51:22.076Z,102091.31
2023-05-13T22:53:54.838Z,102084.63
2023-05-13T22:56:27.656Z,102080.31
2023-05-13T22:59:02.027Z,102073.09
2023-05-13T23:01:34.974Z,102069.09
2023-05-13T23:04:07.982Z,102063.16
2023-05-13T23:06:40.708Z,102064.34
2023-05-13T23:09:13.667Z,102065.97
2023-05-13T23:11:46.353Z,102072.25
2023-05-13T23:14:20.766Z,102072.59
2023-05-13T23:16:53.506Z,102072.88
2023-05-13T23:19:26.721Z,102072.94
2023-05-13T23:21:59.593Z,102067.25
2023-05-13T23:24:32.507Z,102064.16
2023-05-13T23:27:05.210Z,102066.47
2023-05-13T23:29:39.320Z,102066.47
2023-05-13T23:32:12.239Z,102063.63
2023-05-13T23:34:44.897Z,102063.22
2023-05-13T23:37:17.969Z,102056.50
2023-05-13T23:39:50.904Z,102057.69
2023-05-13T23:42:23.748Z,102054.47
2023-05-13T23:44:58.037Z,102053.25
2023-05-13T23:47:30.847Z,102043.38
2023-05-13T23:50:04.014Z,102043.28
2023-05-13T23:52:36.729Z,102034.66
2023-05-13T23:55:09.572Z,102040.84
2023-05-13T23:57:42.214Z,102029.06
